Time;durP1;ratioP1;P1;durP2;ratioP2;P2;SDS_P1;SDS_P2;PMS_P1;PMS_P2;Temp;Humidity;BMP_temperature;BMP_pressure;BME280_temperature;BME280_humidity;BME280_pressure;Samples;Min_cycle;Max_cycle;Signal;HPM_P1;HPM_P2
2022/08/06 00:01:21;;;;;;;2.37;0.87;;;18.80;99.90;;;;;;4988967;28;20336;-71
2022/08/06 00:03:49;;;;;;;3.20;0.67;;;18.70;99.90;;;;;;4988404;28;20230;-71
2022/08/06 00:06:20;;;;;;;0.50;0.50;;;18.50;99.90;;;;;;4988841;28;20210;-70
2022/08/06 00:08:48;;;;;;;1.03;0.70;;;18.40;99.90;;;;;;4988555;28;20747;-71
2022/08/06 00:11:18;;;;;;;1.50;0.37;;;18.60;99.90;;;;;;4988708;28;20272;-70
2022/08/06 00:13:45;;;;;;;1.97;0.50;;;18.60;99.90;;;;;;4988752;28;20205;-70
2022/08/06 00:16:23;;;;;;;0.67;0.50;;;18.60;99.90;;;;;;4988435;28;20206;-70
2022/08/06 00:18:50;;;;;;;1.23;0.60;;;18.60;99.90;;;;;;4999137;28;20267;-71
2022/08/06 00:21:17;;;;;;;0.67;0.60;;;18.50;99.90;;;;;;5008306;28;20202;-72
2022/08/06 00:23:45;;;;;;;1.23;0.40;;;18.50;99.90;;;;;;4995360;28;20315;-72
2022/08/06 00:26:15;;;;;;;1.00;0.50;;;18.50;99.90;;;;;;4988609;28;20285;-74
2022/08/06 00:28:42;;;;;;;1.73;0.70;;;18.50;99.90;;;;;;4988200;28;20226;-70
2022/08/06 00:31:23;;;;;;;0.30;0.30;;;18.40;99.90;;;;;;4988560;28;20241;-71
2022/08/06 00:33:50;;;;;;;0.97;0.60;;;18.50;99.90;;;;;;4988339;28;20206;-70
2022/08/06 00:36:23;;;;;;;1.40;0.50;;;18.30;99.90;;;;;;4988610;28;20202;-71
2022/08/06 00:38:54;;;;;;;0.73;0.47;;;18.30;99.90;;;;;;4988601;28;20214;-71
2022/08/06 00:41:21;;;;;;;1.53;0.40;;;18.50;99.90;;;;;;4988177;28;20272;-71
2022/08/06 00:43:48;;;;;;;0.50;0.50;;;18.30;99.90;;;;;;4988122;28;20232;-70
2022/08/06 00:46:16;;;;;;;0.70;0.70;;;18.40;99.90;;;;;;4988531;28;20210;-71
2022/08/06 00:48:43;;;;;;;3.93;0.50;;;18.10;99.90;;;;;;4996381;28;20206;-71
2022/08/06 00:51:16;;;;;;;1.13;0.80;;;18.00;99.90;;;;;;5006807;28;20237;-70
2022/08/06 00:53:43;;;;;;;0.60;0.60;;;17.90;99.90;;;;;;5008082;28;20298;-71
2022/08/06 00:56:17;;;;;;;5.20;0.67;;;17.90;99.90;;;;;;5007454;28;20703;-71
2022/08/06 00:58:44;;;;;;;2.27;0.50;;;17.90;99.90;;;;;;5007312;28;20577;-71
2022/08/06 01:01:17;;;;;;;2.53;0.73;;;17.90;99.90;;;;;;5006982;28;20213;-71
2022/08/06 01:03:44;;;;;;;1.60;0.80;;;18.00;99.90;;;;;;5007820;28;20287;-71
2022/08/06 01:06:13;;;;;;;1.03;0.60;;;18.00;99.90;;;;;;5007212;28;20201;-71
2022/08/06 01:08:40;;;;;;;1.80;0.70;;;18.00;99.90;;;;;;5007779;28;20216;-70
2022/08/06 01:11:23;;;;;;;1.13;0.40;;;18.10;99.90;;;;;;5007300;28;20691;-71
2022/08/06 01:13:50;;;;;;;0.60;0.40;;;18.00;99.90;;;;;;5007568;28;20217;-71
2022/08/06 01:16:25;;;;;;;1.10;0.60;;;18.10;99.90;;;;;;5007809;28;20206;-71
2022/08/06 01:19:00;;;;;;;0.40;0.40;;;18.20;99.90;;;;;;5007063;28;20752;-71
2022/08/06 01:21:56;;;;;;;0.70;0.50;;;18.00;99.90;;;;;;5007218;28;20616;-71
2022/08/06 01:24:39;;;;;;;1.73;0.60;;;18.00;99.90;;;;;;5005336;28;20239;-70
2022/08/06 01:27:34;;;;;;;1.70;0.70;;;17.90;99.90;;;;;;5007368;28;20197;-70
2022/08/06 01:30:06;;;;;;;1.13;0.60;;;18.10;99.90;;;;;;5007536;28;20194;-70
2022/08/06 01:32:38;;;;;;;0.43;0.40;;;18.20;99.90;;;;;;5007670;28;20198;-71
2022/08/06 01:35:08;;;;;;;0.67;0.60;;;18.30;99.90;;;;;;5007725;28;20194;-70
2022/08/06 01:37:42;;;;;;;0.67;0.67;;;18.30;99.90;;;;;;5005957;28;20194;-71
2022/08/06 01:40:13;;;;;;;0.90;0.50;;;18.40;99.90;;;;;;5007162;28;20554;-70
2022/08/06 01:42:44;;;;;;;1.70;0.60;;;18.30;99.90;;;;;;5007609;28;20198;-70
2022/08/06 01:45:14;;;;;;;0.83;0.53;;;18.30;99.90;;;;;;5010487;28;20232;-71
2022/08/06 01:48:07;;;;;;;1.20;0.63;;;18.20;99.90;;;;;;4997933;28;20194;-70
2022/08/06 01:50:38;;;;;;;0.43;0.40;;;18.10;99.90;;;;;;5010478;28;20205;-71
2022/08/06 01:53:07;;;;;;;0.93;0.53;;;18.20;99.90;;;;;;5010935;28;20190;-71
2022/08/06 01:55:39;;;;;;;0.70;0.70;;;18.20;99.90;;;;;;5010526;28;20213;-71
2022/08/06 01:58:08;;;;;;;1.20;0.57;;;18.30;99.90;;;;;;5007080;28;20241;-71
2022/08/06 02:00:40;;;;;;;0.60;0.60;;;18.30;99.90;;;;;;5009105;28;20267;-71
2022/08/06 02:03:13;;;;;;;0.57;0.50;;;18.30;99.90;;;;;;5010991;28;20750;-71
2022/08/06 02:05:41;;;;;;;1.00;0.70;;;18.40;99.90;;;;;;5010493;28;20217;-71
2022/08/06 02:08:10;;;;;;;0.40;0.40;;;18.50;99.90;;;;;;5006551;28;20669;-70
2022/08/06 02:10:37;;;;;;;1.23;0.63;;;18.50;99.90;;;;;;4998187;28;20206;-70
2022/08/06 02:13:05;;;;;;;0.50;0.47;;;18.50;99.90;;;;;;5010238;28;20677;-71
2022/08/06 02:15:38;;;;;;;0.90;0.50;;;18.50;99.90;;;;;;5010652;28;20256;-70
2022/08/06 02:18:07;;;;;;;1.63;0.70;;;18.60;99.90;;;;;;5005054;28;20199;-70
2022/08/06 02:20:37;;;;;;;0.70;0.57;;;18.60;99.90;;;;;;4997172;28;20202;-71
2022/08/06 02:23:07;;;;;;;0.60;0.60;;;18.50;99.90;;;;;;5010276;28;20222;-71
2022/08/06 02:25:37;;;;;;;0.70;0.57;;;18.50;99.90;;;;;;5010100;28;20669;-71
2022/08/06 02:28:05;;;;;;;0.80;0.73;;;18.50;99.90;;;;;;5010078;28;20233;-71
2022/08/06 02:30:36;;;;;;;0.93;0.60;;;18.50;99.90;;;;;;5009760;28;20219;-71
2022/08/06 02:33:06;;;;;;;0.77;0.63;;;18.40;99.90;;;;;;5010480;28;20208;-71
2022/08/06 02:35:35;;;;;;;0.77;0.70;;;18.40;99.90;;;;;;5009781;28;20252;-71
2022/08/06 02:38:10;;;;;;;4.07;0.60;;;18.30;99.90;;;;;;5009701;28;20209;-71
2022/08/06 02:40:52;;;;;;;1.83;0.60;;;18.30;99.90;;;;;;5003026;28;20197;-71
2022/08/06 02:43:23;;;;;;;1.37;0.63;;;18.10;99.90;;;;;;4990753;28;20281;-71
2022/08/06 02:45:58;;;;;;;2.63;0.60;;;18.20;99.90;;;;;;4990227;28;20697;-71
2022/08/06 02:48:29;;;;;;;1.63;0.70;;;17.90;99.90;;;;;;4997224;28;20202;-71
2022/08/06 02:50:58;;;;;;;1.53;0.77;;;17.80;99.90;;;;;;5009153;28;20202;-71
2022/08/06 02:53:31;;;;;;;1.40;0.50;;;17.80;99.90;;;;;;5009791;28;20202;-71
2022/08/06 02:56:04;;;;;;;0.70;0.50;;;17.70;99.90;;;;;;5008301;28;20202;-71
2022/08/06 02:58:36;;;;;;;1.07;0.67;;;17.50;99.90;;;;;;5009478;28;20291;-71
2022/08/06 03:01:09;;;;;;;1.30;0.63;;;17.30;99.90;;;;;;5008888;28;20197;-71
2022/08/06 03:03:38;;;;;;;1.03;0.83;;;17.10;99.90;;;;;;5009605;28;20558;-72
2022/08/06 03:06:06;;;;;;;1.20;0.80;;;17.10;99.90;;;;;;5009479;28;20300;-70
2022/08/06 03:08:34;;;;;;;1.23;0.70;;;17.00;99.90;;;;;;5008810;28;20227;-70
2022/08/06 03:11:03;;;;;;;2.90;0.80;;;16.70;99.90;;;;;;4999586;28;20236;-70
2022/08/06 03:13:32;;;;;;;1.27;0.60;;;16.60;99.90;;;;;;4989614;28;20205;-70
2022/08/06 03:15:59;;;;;;;0.73;0.50;;;16.70;99.90;;;;;;4989264;28;20221;-70
2022/08/06 03:18:28;;;;;;;2.97;0.80;;;16.50;99.90;;;;;;4996532;28;20213;-70
2022/08/06 03:20:56;;;;;;;1.03;0.73;;;16.50;99.90;;;;;;5008043;28;20217;-71
2022/08/06 03:23:24;;;;;;;0.73;0.73;;;16.40;99.90;;;;;;5008890;28;20217;-71
2022/08/06 03:25:52;;;;;;;0.90;0.90;;;16.30;99.90;;;;;;5008726;28;20237;-71
2022/08/06 03:28:20;;;;;;;2.13;1.00;;;16.40;99.90;;;;;;5008650;28;20736;-71
2022/08/06 03:30:47;;;;;;;0.83;0.70;;;16.60;99.90;;;;;;5008362;28;20217;-71
2022/08/06 03:33:17;;;;;;;0.70;0.70;;;16.70;99.90;;;;;;5008956;28;20205;-71
2022/08/06 03:35:46;;;;;;;1.10;0.70;;;16.90;99.90;;;;;;5008828;28;20304;-69
2022/08/06 03:38:14;;;;;;;0.80;0.63;;;16.80;99.90;;;;;;5008555;28;20206;-71
2022/08/06 03:40:45;;;;;;;1.97;0.80;;;16.60;99.90;;;;;;5008127;28;20208;-72
2022/08/06 03:43:12;;;;;;;2.13;0.80;;;16.50;99.90;;;;;;5008800;28;20594;-71
2022/08/06 03:45:43;;;;;;;1.60;1.10;;;16.50;99.90;;;;;;5008749;28;20244;-71
2022/08/06 03:48:16;;;;;;;1.23;0.73;;;16.60;99.90;;;;;;5008560;28;20215;-71
2022/08/06 03:50:47;;;;;;;1.13;0.77;;;16.60;99.90;;;;;;5006198;28;20827;-71
2022/08/06 03:53:19;;;;;;;1.80;0.73;;;16.70;99.90;;;;;;5008414;28;20190;-71
2022/08/06 03:55:48;;;;;;;1.03;0.90;;;16.80;99.90;;;;;;5008103;28;20204;-71
2022/08/06 03:58:18;;;;;;;1.73;0.80;;;16.70;99.90;;;;;;5008206;28;20327;-71
2022/08/06 04:00:48;;;;;;;1.03;0.97;;;16.80;99.90;;;;;;5007846;28;20209;-70
2022/08/06 04:03:16;;;;;;;1.83;1.10;;;16.60;99.90;;;;;;5008570;28;20220;-72
2022/08/06 04:05:45;;;;;;;2.20;1.03;;;16.50;99.90;;;;;;5008026;28;20233;-70
2022/08/06 04:08:13;;;;;;;0.57;0.57;;;16.40;99.90;;;;;;5007677;28;20198;-70
2022/08/06 04:10:43;;;;;;;1.63;0.87;;;16.30;99.90;;;;;;4999121;28;20970;-70
2022/08/06 04:13:13;;;;;;;1.00;0.77;;;16.30;99.90;;;;;;4988912;28;20190;-70
2022/08/06 04:15:40;;;;;;;2.53;1.00;;;16.20;99.90;;;;;;4988681;28;20582;-70
2022/08/06 04:18:11;;;;;;;1.13;1.00;;;16.20;99.90;;;;;;4992820;28;20213;-70
2022/08/06 04:20:44;;;;;;;0.67;0.67;;;16.10;99.90;;;;;;5008196;28;20210;-70
2022/08/06 04:23:12;;;;;;;2.83;1.10;;;16.10;99.90;;;;;;5004399;28;20534;-71
2022/08/06 04:25:42;;;;;;;1.23;0.53;;;16.30;99.90;;;;;;5007844;28;20229;-71
2022/08/06 04:28:10;;;;;;;2.13;0.73;;;16.40;99.90;;;;;;5007860;28;20256;-71
2022/08/06 04:30:39;;;;;;;2.90;0.87;;;16.50;99.90;;;;;;5008290;28;20228;-69
2022/08/06 04:33:09;;;;;;;1.43;0.97;;;16.30;99.90;;;;;;5007988;28;20213;-69
2022/08/06 04:35:40;;;;;;;1.33;0.73;;;16.20;99.90;;;;;;4994352;28;20213;-70
2022/08/06 04:38:07;;;;;;;1.07;0.80;;;16.20;99.90;;;;;;4988885;28;20206;-70
2022/08/06 04:40:37;;;;;;;2.63;0.97;;;16.10;99.90;;;;;;4988372;28;20203;-70
2022/08/06 04:43:06;;;;;;;2.77;1.00;;;16.20;99.90;;;;;;4988485;28;20202;-70
2022/08/06 04:45:34;;;;;;;1.83;0.70;;;16.10;99.90;;;;;;4988215;28;20241;-70
2022/08/06 04:48:03;;;;;;;1.80;0.90;;;16.20;99.90;;;;;;5007852;28;20217;-70
2022/08/06 04:50:31;;;;;;;1.53;0.97;;;16.30;99.90;;;;;;5007780;28;20734;-70
2022/08/06 04:53:05;;;;;;;1.20;1.00;;;16.50;99.90;;;;;;5007873;28;20205;-70
2022/08/06 04:55:33;;;;;;;1.63;1.07;;;16.50;99.90;;;;;;5007956;28;20205;-70
2022/08/06 04:58:02;;;;;;;2.10;1.13;;;16.40;99.90;;;;;;5003049;28;20239;-70
2022/08/06 05:00:29;;;;;;;2.70;1.10;;;16.30;99.90;;;;;;4988409;28;20676;-70
2022/08/06 05:02:55;;;;;;;1.47;0.80;;;16.40;99.90;;;;;;4988303;28;20206;-70
2022/08/06 05:05:24;;;;;;;0.77;0.77;;;16.40;99.90;;;;;;4988025;28;20747;-70
2022/08/06 05:07:53;;;;;;;0.90;0.90;;;16.30;99.90;;;;;;4988260;28;20285;-72
2022/08/06 05:10:23;;;;;;;1.00;0.90;;;16.00;99.90;;;;;;4988551;28;20281;-72
2022/08/06 05:12:56;;;;;;;1.00;1.00;;;15.80;99.90;;;;;;4988284;28;20212;-72
2022/08/06 05:15:30;;;;;;;1.50;1.10;;;15.70;99.90;;;;;;4988381;28;20203;-72
2022/08/06 05:17:59;;;;;;;3.80;1.10;;;15.60;99.90;;;;;;4990829;28;20284;-72
2022/08/06 05:20:28;;;;;;;3.03;0.90;;;15.50;99.90;;;;;;4991835;28;20202;-71
2022/08/06 05:22:59;;;;;;;1.80;1.20;;;15.50;99.90;;;;;;4992075;28;20206;-71
2022/08/06 05:25:25;;;;;;;0.97;0.97;;;15.50;99.90;;;;;;4991284;28;20602;-71
2022/08/06 05:27:52;;;;;;;2.33;1.20;;;15.70;99.90;;;;;;4991581;28;20470;-71
2022/08/06 05:30:20;;;;;;;2.10;1.10;;;15.60;99.90;;;;;;4991402;28;20217;-71
2022/08/06 05:33:22;;;;;;;2.13;1.00;;;15.50;99.90;;;;;;4991605;28;20289;-71
2022/08/06 05:35:48;;;;;;;1.70;1.30;;;15.40;99.90;;;;;;4991241;28;20668;-70
2022/08/06 05:38:15;;;;;;;1.17;1.03;;;15.40;99.90;;;;;;4991603;28;20217;-70
2022/08/06 05:40:42;;;;;;;1.83;0.93;;;15.50;99.90;;;;;;4991434;28;20206;-71
2022/08/06 05:43:09;;;;;;;2.03;1.00;;;15.50;99.90;;;;;;4991366;28;20210;-70
2022/08/06 05:45:36;;;;;;;4.03;1.20;;;15.50;99.90;;;;;;4991582;28;20230;-70
2022/08/06 05:48:05;;;;;;;1.33;1.00;;;15.50;99.90;;;;;;4991303;28;20218;-70
2022/08/06 05:50:53;;;;;;;2.00;0.90;;;15.50;99.90;;;;;;4992452;28;20221;-70
2022/08/06 05:53:27;;;;;;;0.77;0.70;;;15.70;99.90;;;;;;4991343;28;20210;-70
2022/08/06 05:55:57;;;;;;;3.60;1.07;;;15.80;99.90;;;;;;4990945;28;20198;-70
2022/08/06 05:58:30;;;;;;;2.20;1.00;;;15.80;99.90;;;;;;4985423;28;20237;-69
2022/08/06 06:01:01;;;;;;;3.83;1.27;;;16.00;99.90;;;;;;4989608;28;20214;-70
2022/08/06 06:03:28;;;;;;;0.90;0.70;;;16.10;99.90;;;;;;4996191;28;20201;-70
2022/08/06 06:05:59;;;;;;;1.53;0.90;;;16.20;99.90;;;;;;5007935;28;20253;-70
2022/08/06 06:08:26;;;;;;;0.90;0.90;;;16.20;99.90;;;;;;5008218;28;20209;-70
2022/08/06 06:10:54;;;;;;;3.13;0.87;;;16.40;99.90;;;;;;4995727;28;20206;-70
2022/08/06 06:13:25;;;;;;;2.90;1.30;;;16.50;99.90;;;;;;4988485;28;20309;-70
2022/08/06 06:15:56;;;;;;;2.17;1.17;;;16.70;99.90;;;;;;4988405;28;21027;-71
2022/08/06 06:18:39;;;;;;;1.33;1.10;;;16.80;99.90;;;;;;4995064;28;20292;-71
2022/08/06 06:21:23;;;;;;;3.87;0.90;;;16.80;99.90;;;;;;4988714;28;20213;-71
2022/08/06 06:23:56;;;;;;;3.67;1.03;;;16.80;99.90;;;;;;4988668;28;20198;-70
2022/08/06 06:26:50;;;;;;;1.13;0.83;;;16.90;99.90;;;;;;4988569;28;20400;-70
2022/08/06 06:29:35;;;;;;;1.77;0.70;;;17.00;99.90;;;;;;4989061;28;20206;-70
2022/08/06 06:32:58;;;;;;;1.23;0.70;;;17.00;99.90;;;;;;4988734;28;20200;-70
2022/08/06 06:35:36;;;;;;;2.10;0.73;;;17.00;99.90;;;;;;4988297;28;20214;-71
2022/08/06 06:38:17;;;;;;;1.23;0.87;;;17.20;99.90;;;;;;5001315;28;20586;-70
2022/08/06 06:40:51;;;;;;;1.73;0.90;;;17.20;99.90;;;;;;5002210;28;20244;-71
2022/08/06 06:43:23;;;;;;;1.10;0.90;;;17.10;99.90;;;;;;5000901;28;20205;-71
2022/08/06 06:45:57;;;;;;;1.80;0.67;;;17.10;99.90;;;;;;5008025;28;20578;-71
2022/08/06 06:48:29;;;;;;;2.97;0.87;;;17.20;99.90;;;;;;5000883;28;20201;-70
2022/08/06 06:51:02;;;;;;;3.10;1.10;;;17.10;99.90;;;;;;5005113;28;20205;-71
2022/08/06 06:53:36;;;;;;;4.33;0.87;;;17.20;99.90;;;;;;5001810;28;20301;-70
2022/08/06 06:56:04;;;;;;;0.97;0.63;;;17.30;99.90;;;;;;5001880;28;20206;-70
2022/08/06 06:58:36;;;;;;;1.40;0.80;;;17.40;99.90;;;;;;4997679;28;20233;-70
2022/08/06 07:03:48;;;;;;;1.10;0.53;;;17.60;99.90;;;;;;4994215;28;20221;-71
2022/08/06 07:06:16;;;;;;;1.40;0.70;;;17.70;99.90;;;;;;4994274;28;20229;-70
2022/08/06 07:08:48;;;;;;;1.43;0.77;;;17.80;99.90;;;;;;5008273;28;20685;-71
2022/08/06 07:11:18;;;;;;;0.70;0.70;;;17.90;99.90;;;;;;5007861;28;20194;-70
2022/08/06 07:13:46;;;;;;;3.67;1.00;;;17.80;99.90;;;;;;4997777;28;20568;-69
2022/08/06 07:19:01;;;;;;;0.80;0.57;;;18.00;99.90;;;;;;4989648;28;20320;-68
2022/08/06 07:21:28;;;;;;;1.73;0.90;;;18.00;99.90;;;;;;5008938;28;20196;-69
2022/08/06 07:23:57;;;;;;;2.93;0.80;;;18.10;99.90;;;;;;5001802;28;20198;-68
2022/08/06 07:29:46;;;;;;;0.50;0.50;;;18.10;99.90;;;;;;4989108;28;20205;-68
2022/08/06 07:32:17;;;;;;;4.50;0.80;;;17.90;99.90;;;;;;4989060;28;20875;-69
2022/08/06 07:34:45;;;;;;;1.00;0.80;;;18.00;99.90;;;;;;4989255;28;20206;-69
2022/08/06 07:37:35;;;;;;;1.07;0.83;;;18.10;99.90;;;;;;4990337;28;20242;-68
2022/08/06 07:40:06;;;;;;;1.33;0.60;;;18.20;99.90;;;;;;4988959;28;20290;-68
2022/08/06 07:43:22;;;;;;;1.83;0.73;;;18.40;99.90;;;;;;4988625;28;20210;-68
2022/08/06 07:45:50;;;;;;;1.33;0.80;;;18.50;99.90;;;;;;4988790;28;20254;-69
2022/08/06 07:48:21;;;;;;;0.50;0.50;;;18.50;99.90;;;;;;4994600;28;20210;-69
2022/08/06 07:50:51;;;;;;;1.80;0.63;;;18.60;99.90;;;;;;5007449;28;20229;-69
2022/08/06 07:53:42;;;;;;;1.03;0.60;;;18.70;99.90;;;;;;5008292;28;20212;-69
2022/08/06 07:56:11;;;;;;;1.73;0.90;;;18.70;99.90;;;;;;5008306;28;20209;-68
2022/08/06 07:58:38;;;;;;;1.37;0.70;;;18.60;99.90;;;;;;5008167;28;20209;-69
2022/08/06 08:01:07;;;;;;;1.27;0.47;;;18.50;99.90;;;;;;5008179;28;20663;-69
2022/08/06 08:07:21;;;;;;;6.67;1.10;;;18.70;99.90;;;;;;5008147;28;20259;-68
2022/08/06 08:09:49;;;;;;;0.80;0.60;;;18.80;99.90;;;;;;5007792;28;20200;-69
2022/08/06 08:12:42;;;;;;;0.73;0.40;;;19.00;99.90;;;;;;5007996;28;20206;-69
2022/08/06 08:15:10;;;;;;;1.67;0.60;;;19.20;99.90;;;;;;5007727;28;20197;-69
2022/08/06 08:18:11;;;;;;;1.13;0.70;;;19.40;99.90;;;;;;5004488;28;20220;-69
2022/08/06 08:20:39;;;;;;;0.90;0.50;;;19.50;99.90;;;;;;5008130;28;20202;-69
2022/08/06 08:23:09;;;;;;;1.27;0.83;;;19.60;99.90;;;;;;5007872;28;20687;-68
2022/08/06 08:25:36;;;;;;;0.57;0.40;;;19.70;99.90;;;;;;5007863;28;20586;-69
2022/08/06 08:28:15;;;;;;;0.47;0.40;;;19.60;99.90;;;;;;5008102;28;20320;-69
2022/08/06 08:30:44;;;;;;;8.03;1.33;;;19.60;99.90;;;;;;5008237;28;20201;-69
2022/08/06 08:33:13;;;;;;;1.80;0.60;;;19.60;99.90;;;;;;4992235;28;20293;-69
2022/08/06 08:35:41;;;;;;;2.27;0.83;;;19.80;99.90;;;;;;4988565;28;20310;-69
2022/08/06 08:38:35;;;;;;;1.73;0.60;;;19.80;99.80;;;;;;4988267;28;20217;-69
2022/08/06 08:41:05;;;;;;;1.00;0.73;;;20.00;99.10;;;;;;4988150;28;20198;-69
2022/08/06 08:43:37;;;;;;;1.23;0.60;;;19.80;98.50;;;;;;4988130;28;20206;-69
2022/08/06 08:46:07;;;;;;;3.73;0.70;;;19.80;98.90;;;;;;4987960;28;20649;-69
2022/08/06 08:48:35;;;;;;;1.17;1.07;;;19.90;98.90;;;;;;4989819;28;20206;-69
2022/08/06 08:51:03;;;;;;;4.47;0.60;;;20.00;98.60;;;;;;5007731;28;20205;-69
2022/08/06 08:53:37;;;;;;;2.07;0.57;;;20.20;98.80;;;;;;5010158;28;20216;-69
2022/08/06 08:56:04;;;;;;;0.90;0.60;;;20.20;97.30;;;;;;5011431;28;20731;-69
2022/08/06 08:58:36;;;;;;;0.73;0.50;;;20.30;97.50;;;;;;5011542;28;20221;-70
2022/08/06 09:01:08;;;;;;;1.10;0.50;;;20.40;97.30;;;;;;4996718;28;20190;-69
2022/08/06 09:03:35;;;;;;;1.13;0.53;;;20.50;97.40;;;;;;4991755;28;20661;-69
2022/08/06 09:06:03;;;;;;;3.37;1.00;;;20.60;96.90;;;;;;4991898;28;20280;-69
2022/08/06 09:08:31;;;;;;;1.60;0.40;;;20.70;97.10;;;;;;4991930;28;20230;-69
2022/08/06 09:10:58;;;;;;;1.93;0.40;;;20.80;96.90;;;;;;4991673;28;20213;-70
2022/08/06 09:13:25;;;;;;;1.70;0.50;;;20.90;96.10;;;;;;4997917;28;20213;-69
2022/08/06 09:15:52;;;;;;;0.77;0.47;;;21.00;95.50;;;;;;5011016;28;20202;-69
2022/08/06 09:18:38;;;;;;;1.07;0.40;;;21.00;95.40;;;;;;5011319;28;20221;-69
2022/08/06 09:21:06;;;;;;;0.50;0.40;;;21.10;95.70;;;;;;5011168;28;20285;-69
2022/08/06 09:23:52;;;;;;;0.30;0.30;;;21.10;95.20;;;;;;5011236;28;20216;-69
2022/08/06 09:26:19;;;;;;;0.32;0.30;;;21.00;94.30;;;;;;5010713;28;20236;-69
2022/08/06 09:32:09;;;;;;;2.50;0.33;;;21.00;93.60;;;;;;5001123;28;20240;-69
2022/08/06 09:34:40;;;;;;;0.40;0.35;;;21.10;93.90;;;;;;5011077;28;20193;-69
2022/08/06 09:37:07;;;;;;;0.90;0.52;;;21.20;93.80;;;;;;5010735;28;20343;-69
2022/08/06 09:39:39;;;;;;;0.50;0.50;;;21.20;93.30;;;;;;5010931;28;20205;-69
2022/08/06 09:42:06;;;;;;;0.57;0.40;;;21.20;93.50;;;;;;5010688;28;20189;-69
2022/08/06 09:44:33;;;;;;;7.00;1.10;;;21.10;93.40;;;;;;5011165;28;20201;-69
2022/08/06 09:47:00;;;;;;;2.47;0.75;;;21.00;93.30;;;;;;5010634;28;20247;-69
2022/08/06 09:49:28;;;;;;;1.00;0.50;;;21.20;93.10;;;;;;5010061;28;20219;-69
2022/08/06 09:52:17;;;;;;;0.50;0.37;;;21.30;92.80;;;;;;5010509;28;20205;-69
2022/08/06 09:54:45;;;;;;;1.53;0.40;;;21.60;92.70;;;;;;5010626;28;20194;-69
2022/08/06 09:57:12;;;;;;;0.25;0.25;;;21.60;91.50;;;;;;5010225;28;20206;-69
2022/08/06 09:59:46;;;;;;;0.20;0.20;;;21.70;91.70;;;;;;5010543;28;20245;-69
2022/08/06 10:02:14;;;;;;;0.50;0.40;;;21.80;91.50;;;;;;5010640;28;20221;-69
2022/08/06 10:04:41;;;;;;;2.05;0.50;;;21.70;91.50;;;;;;5009957;28;20212;-69
2022/08/06 10:07:08;;;;;;;1.13;0.55;;;21.80;92.00;;;;;;5010535;28;20705;-70
2022/08/06 10:09:37;;;;;;;2.25;0.70;;;21.90;92.20;;;;;;5010232;28;20218;-69
2022/08/06 10:12:17;;;;;;;1.30;0.50;;;21.80;91.70;;;;;;5010230;28;20206;-69
2022/08/06 10:14:44;;;;;;;1.90;0.38;;;21.60;92.00;;;;;;5010623;28;20197;-69
2022/08/06 10:17:13;;;;;;;2.25;0.40;;;21.40;92.00;;;;;;5010557;28;20201;-69
2022/08/06 10:19:41;;;;;;;0.90;0.50;;;21.50;92.40;;;;;;5010285;28;20248;-69
2022/08/06 10:22:10;;;;;;;0.70;0.35;;;21.60;92.20;;;;;;5009595;28;20216;-69
2022/08/06 10:24:41;;;;;;;0.82;0.40;;;21.70;91.90;;;;;;4999301;28;20321;-69
2022/08/06 10:27:10;;;;;;;1.23;0.35;;;21.80;91.40;;;;;;4990167;28;20248;-69
2022/08/06 10:29:40;;;;;;;0.60;0.50;;;21.80;91.80;;;;;;4990556;28;20209;-69
2022/08/06 10:32:10;;;;;;;1.13;0.50;;;21.90;92.00;;;;;;4990027;28;20765;-70
2022/08/06 10:34:39;;;;;;;1.05;0.45;;;22.20;91.40;;;;;;4990286;28;20214;-69
2022/08/06 10:37:07;;;;;;;1.20;0.60;;;22.30;91.30;;;;;;4990141;28;20269;-69
2022/08/06 10:39:38;;;;;;;0.35;0.30;;;22.40;91.00;;;;;;4990466;28;20241;-69
2022/08/06 10:42:07;;;;;;;0.80;0.30;;;22.40;90.50;;;;;;4989853;28;20678;-69
2022/08/06 10:44:37;;;;;;;1.27;0.40;;;22.40;90.20;;;;;;4990555;28;20320;-67
2022/08/06 10:47:04;;;;;;;1.13;0.70;;;22.60;90.10;;;;;;4990235;28;20226;-67
2022/08/06 10:49:33;;;;;;;1.00;0.57;;;22.70;90.00;;;;;;5005810;28;20213;-69
2022/08/06 10:52:00;;;;;;;0.45;0.45;;;22.70;89.70;;;;;;5009642;28;20210;-70
2022/08/06 10:54:27;;;;;;;3.17;0.70;;;22.70;89.90;;;;;;5009852;28;20213;-69
2022/08/06 10:56:55;;;;;;;6.07;0.70;;;22.80;90.30;;;;;;4996042;28;20209;-69
2022/08/06 10:59:24;;;;;;;0.85;0.60;;;22.90;88.70;;;;;;4989567;28;20674;-70
2022/08/06 11:02:01;;;;;;;0.85;0.40;;;23.10;88.30;;;;;;4989919;28;20658;-69
2022/08/06 11:04:42;;;;;;;0.52;0.40;;;23.20;87.80;;;;;;4990221;28;20559;-69
2022/08/06 11:07:56;;;;;;;0.40;0.40;;;23.20;87.60;;;;;;4989673;28;20309;-69
2022/08/06 11:10:41;;;;;;;0.82;0.43;;;23.10;86.40;;;;;;4948598;29;20853;-69
2022/08/06 11:13:16;;;;;;;0.82;0.60;;;23.30;87.50;;;;;;4984876;28;20206;-70
2022/08/06 11:15:44;;;;;;;1.75;0.50;;;23.50;87.40;;;;;;4989462;28;20198;-69
2022/08/06 11:18:12;;;;;;;0.57;0.57;;;23.60;85.90;;;;;;4994089;28;20213;-69
2022/08/06 11:20:42;;;;;;;0.50;0.50;;;23.80;85.40;;;;;;5008611;28;20208;-69
2022/08/06 11:23:38;;;;;;;1.20;0.57;;;23.90;83.90;;;;;;5005373;28;20197;-70
2022/08/06 11:26:07;;;;;;;0.63;0.35;;;24.00;83.40;;;;;;4947803;29;20291;-70
2022/08/06 11:29:00;;;;;;;1.02;0.50;;;23.90;81.90;;;;;;4979751;28;20252;-70
2022/08/06 11:31:34;;;;;;;1.60;0.45;;;23.80;81.60;;;;;;4989346;28;20209;-69
2022/08/06 11:34:03;;;;;;;0.52;0.40;;;24.00;81.90;;;;;;4989071;28;20888;-70
2022/08/06 11:36:44;;;;;;;2.40;0.40;;;24.10;82.60;;;;;;4988906;28;20218;-70
2022/08/06 11:39:11;;;;;;;1.88;0.50;;;24.20;83.30;;;;;;4988873;28;20547;-70
2022/08/06 11:41:46;;;;;;;0.35;0.35;;;24.50;82.90;;;;;;4988743;28;20207;-69
2022/08/06 11:44:15;;;;;;;1.58;0.60;;;24.50;83.40;;;;;;4988891;28;20193;-70
2022/08/06 11:46:45;;;;;;;0.35;0.35;;;24.40;81.60;;;;;;4988932;28;20312;-70
2022/08/06 11:49:18;;;;;;;2.97;0.52;;;24.00;80.90;;;;;;5001961;28;20213;-69
2022/08/06 11:51:47;;;;;;;0.38;0.35;;;24.10;82.80;;;;;;5007921;28;20201;-70
2022/08/06 11:54:15;;;;;;;1.40;0.32;;;24.30;83.10;;;;;;5008343;28;20210;-70
2022/08/06 11:57:25;;;;;;;0.35;0.30;;;24.50;83.30;;;;;;5008154;28;20209;-70
2022/08/06 12:00:22;;;;;;;0.82;0.30;;;25.00;83.30;;;;;;4927999;29;20250;-70
2022/08/06 12:02:58;;;;;;;1.23;0.60;;;25.20;81.20;;;;;;4928176;29;20204;-69
2022/08/06 12:05:44;;;;;;;1.27;0.40;;;25.10;80.90;;;;;;4989655;28;20205;-69
2022/08/06 12:08:32;;;;;;;1.20;0.40;;;24.90;80.00;;;;;;5007855;28;20217;-70
2022/08/06 12:11:35;;;;;;;2.08;0.45;;;25.00;78.80;;;;;;5007563;28;20201;-70
2022/08/06 12:14:02;;;;;;;0.57;0.50;;;25.00;77.30;;;;;;5007880;28;20209;-70
2022/08/06 12:16:38;;;;;;;0.35;0.20;;;24.80;77.60;;;;;;5008298;28;20217;-70
2022/08/06 12:19:13;;;;;;;1.77;0.50;;;25.00;77.90;;;;;;4999058;28;20712;-70
2022/08/06 12:21:42;;;;;;;0.65;0.40;;;25.30;78.40;;;;;;4988493;28;20638;-70
2022/08/06 12:24:09;;;;;;;0.80;0.30;;;25.30;78.00;;;;;;4988278;28;20516;-70
2022/08/06 12:26:36;;;;;;;0.43;0.43;;;25.30;78.40;;;;;;4988011;28;20640;-70
2022/08/06 12:29:07;;;;;;;0.30;0.30;;;25.60;78.40;;;;;;4988017;28;20206;-70
2022/08/06 12:31:37;;;;;;;1.70;0.45;;;25.70;76.30;;;;;;4988594;28;20253;-71
2022/08/06 12:34:06;;;;;;;2.92;0.60;;;25.60;75.10;;;;;;4988285;28;20209;-70
2022/08/06 12:36:35;;;;;;;1.48;0.60;;;25.30;75.60;;;;;;4988274;28;20216;-70
2022/08/06 12:39:05;;;;;;;0.35;0.30;;;25.00;76.30;;;;;;4987893;28;20735;-70
2022/08/06 12:41:41;;;;;;;5.45;0.93;;;25.20;77.00;;;;;;4987932;28;20217;-70
2022/08/06 12:44:11;;;;;;;0.20;0.20;;;25.50;76.70;;;;;;4988194;28;20206;-70
2022/08/06 12:46:40;;;;;;;3.45;0.45;;;25.80;75.80;;;;;;4988747;28;20194;-70
2022/08/06 12:49:09;;;;;;;0.30;0.30;;;25.80;75.60;;;;;;5000193;28;20304;-70
2022/08/06 12:51:36;;;;;;;0.60;0.28;;;26.10;75.90;;;;;;5007881;28;20209;-70
2022/08/06 12:54:08;;;;;;;1.75;0.30;;;26.00;75.10;;;;;;5007575;28;20800;-70
2022/08/06 12:56:39;;;;;;;0.50;0.50;;;25.70;75.00;;;;;;5007473;28;20190;-70
2022/08/06 12:59:09;;;;;;;0.32;0.20;;;25.50;75.20;;;;;;5007345;28;20345;-70
2022/08/06 13:01:37;;;;;;;9.43;0.80;;;25.50;73.60;;;;;;5007874;28;20212;-70
2022/08/06 13:04:12;;;;;;;1.85;0.57;;;25.40;74.70;;;;;;5007721;28;20209;-71
2022/08/06 13:06:40;;;;;;;2.50;1.08;;;25.30;75.20;;;;;;4991993;28;20650;-70
2022/08/06 13:09:07;;;;;;;0.80;0.57;;;25.20;76.10;;;;;;4987869;28;20236;-70
2022/08/06 13:11:35;;;;;;;8.25;0.90;;;25.10;75.40;;;;;;4987848;28;20213;-70
2022/08/06 13:14:11;;;;;;;10.48;2.22;;;24.90;75.00;;;;;;4987872;28;20234;-70
2022/08/06 13:16:40;;;;;;;0.73;0.63;;;25.00;75.00;;;;;;4987961;28;20206;-70
2022/08/06 13:19:10;;;;;;;3.00;0.73;;;25.30;74.70;;;;;;5000226;28;20217;-70
2022/08/06 13:21:39;;;;;;;1.90;0.55;;;25.70;75.60;;;;;;5007253;28;20237;-70
2022/08/06 13:24:07;;;;;;;1.23;0.60;;;26.10;75.50;;;;;;5007600;28;20233;-70
2022/08/06 13:26:46;;;;;;;0.77;0.50;;;26.60;74.50;;;;;;5007200;28;20228;-70
2022/08/06 13:29:15;;;;;;;0.75;0.35;;;26.80;73.40;;;;;;5007390;28;20221;-70